DLH410 EDDM-KJFK
Flight info
| Callsign | DLH410 |
|---|---|
| Flight time | N/A |
| Altitude | 38000 |
| Route | GIVMI6Q/08L GIVMI Y101 INBED DCT REKDI DCT LOHRE DCT BUB L608 DENUT L610 KOPUL Q60 OKSAW DCT BIBPE DCT FELCA DCT OFSOX DCT SLANY/N0486F400 DCT OLGON DCT NEBIN/M084F390 NATB BUDAR/N0479F400 DCT ALLEX DCT PLYMM PARCH4 |
| Aircraft | A359/H-SDE2E3GHIJ3J4J5LM1ORWXY/LB1D1 |
Departure
| Time | 2026-05-01 10:40 |
|---|---|
| Airport | Munich Airport (EDDM) |
Arrival
| Time | N/A |
|---|---|
| Airport | John F. Kennedy International Airport (KJFK) |
| Time | Latitude | Longitude | Altitude | Speed | Heading |
|---|---|---|---|---|---|
| 2026-05-01 09:51 | 48.35842 | 11.79255 | 1476 ft | 0 kts | 263° |
| 2026-05-01 10:23 | 48.35844 | 11.79286 | 1487 ft | 4 kts | 263° |
| 2026-05-01 10:23 | 48.35847 | 11.79320 | 1491 ft | 2 kts | 263° |
| 2026-05-01 10:24 | 48.35835 | 11.79386 | 1476 ft | 4 kts | 342° |
| 2026-05-01 10:24 | 48.35796 | 11.79395 | 1476 ft | 0 kts | 353° |
| 2026-05-01 10:28 | 48.35803 | 11.79393 | 1476 ft | 3 kts | 353° |
| 2026-05-01 10:29 | 48.35905 | 11.79367 | 1471 ft | 10 kts | 336° |
| 2026-05-01 10:29 | 48.35973 | 11.79337 | 1492 ft | 11 kts | 353° |
| 2026-05-01 10:30 | 48.35992 | 11.79333 | 1478 ft | 0 kts | 353° |
| 2026-05-01 10:32 | 48.35999 | 11.79332 | 1480 ft | 2 kts | 353° |
| 2026-05-01 10:33 | 48.36080 | 11.79299 | 1476 ft | 9 kts | 314° |
| 2026-05-01 10:33 | 48.36074 | 11.79073 | 1481 ft | 14 kts | 263° |
| 2026-05-01 10:34 | 48.36062 | 11.78907 | 1479 ft | 17 kts | 263° |
| 2026-05-01 10:34 | 48.36048 | 11.78721 | 1481 ft | 19 kts | 264° |
| 2026-05-01 10:34 | 48.36031 | 11.78520 | 1480 ft | 20 kts | 263° |
| 2026-05-01 10:35 | 48.36002 | 11.78135 | 1479 ft | 16 kts | 264° |
| 2026-05-01 10:35 | 48.35990 | 11.77965 | 1478 ft | 17 kts | 263° |
| 2026-05-01 10:35 | 48.35975 | 11.77779 | 1480 ft | 19 kts | 263° |
| 2026-05-01 10:35 | 48.35960 | 11.77579 | 1481 ft | 20 kts | 263° |
| 2026-05-01 10:36 | 48.35927 | 11.77155 | 1484 ft | 21 kts | 263° |
| 2026-05-01 10:36 | 48.35914 | 11.76977 | 1491 ft | 16 kts | 265° |
| 2026-05-01 10:36 | 48.35962 | 11.76838 | 1476 ft | 16 kts | 331° |
| 2026-05-01 10:37 | 48.36073 | 11.76811 | 1483 ft | 17 kts | 354° |
| 2026-05-01 10:37 | 48.36137 | 11.76800 | 1488 ft | 0 kts | 353° |
| 2026-05-01 10:38 | 48.36137 | 11.76799 | 1488 ft | 0 kts | 353° |
| 2026-05-01 10:38 | 48.36169 | 11.76795 | 1487 ft | 9 kts | 355° |
| 2026-05-01 10:38 | 48.36249 | 11.76787 | 1483 ft | 12 kts | 5° |
| 2026-05-01 10:38 | 48.36284 | 11.76863 | 1482 ft | 0 kts | 81° |
| 2026-05-01 10:39 | 48.36285 | 11.76874 | 1491 ft | 7 kts | 81° |
| 2026-05-01 10:39 | 48.36309 | 11.77191 | 1477 ft | 61 kts | 83° |
| 2026-05-01 10:39 | 48.36381 | 11.78118 | 1478 ft | 116 kts | 83° |
| 2026-05-01 10:40 | 48.36496 | 11.79548 | 1679 ft | 146 kts | 84° |
| 2026-05-01 10:40 | 48.36609 | 11.81016 | 2382 ft | 142 kts | 84° |
| 2026-05-01 10:40 | 48.36711 | 11.82548 | 2791 ft | 156 kts | 84° |
| 2026-05-01 10:40 | 48.36903 | 11.84268 | 2962 ft | 178 kts | 69° |
| 2026-05-01 10:41 | 48.37885 | 11.85536 | 3207 ft | 205 kts | 22° |
| 2026-05-01 10:41 | 48.39354 | 11.85936 | 3394 ft | 230 kts | 12° |
| 2026-05-01 10:41 | 48.42736 | 11.85340 | 4132 ft | 272 kts | 327° |
| 2026-05-01 10:42 | 48.44069 | 11.83216 | 4640 ft | 287 kts | 309° |
| 2026-05-01 10:42 | 48.45293 | 11.80822 | 5336 ft | 287 kts | 309° |
| 2026-05-01 10:42 | 48.46529 | 11.78485 | 6100 ft | 285 kts | 310° |
| 2026-05-01 10:42 | 48.47789 | 11.76171 | 6788 ft | 286 kts | 311° |
| 2026-05-01 10:43 | 48.49064 | 11.73869 | 7449 ft | 287 kts | 312° |
| 2026-05-01 10:43 | 48.50357 | 11.71562 | 8071 ft | 289 kts | 312° |
| 2026-05-01 10:43 | 48.51650 | 11.69282 | 8672 ft | 291 kts | 313° |
| 2026-05-01 10:43 | 48.52971 | 11.66951 | 9293 ft | 294 kts | 313° |
| 2026-05-01 10:44 | 48.54303 | 11.64602 | 9947 ft | 296 kts | 313° |
| 2026-05-01 10:44 | 48.55653 | 11.62216 | 10476 ft | 301 kts | 313° |
| 2026-05-01 10:44 | 48.57013 | 11.59807 | 11105 ft | 301 kts | 313° |
| 2026-05-01 10:44 | 48.58396 | 11.57370 | 11483 ft | 312 kts | 314° |
| 2026-05-01 10:45 | 48.59836 | 11.54820 | 11743 ft | 326 kts | 314° |
| 2026-05-01 10:45 | 48.61333 | 11.52158 | 11985 ft | 339 kts | 313° |
| 2026-05-01 10:45 | 48.62865 | 11.49431 | 12244 ft | 351 kts | 313° |
| 2026-05-01 10:45 | 48.64472 | 11.46574 | 12545 ft | 360 kts | 313° |
| 2026-05-01 10:46 | 48.66110 | 11.43657 | 12854 ft | 369 kts | 313° |
| 2026-05-01 10:46 | 48.67799 | 11.40646 | 13090 ft | 380 kts | 313° |
| 2026-05-01 10:46 | 48.69542 | 11.37593 | 13382 ft | 386 kts | 316° |
| 2026-05-01 10:46 | 48.71545 | 11.34878 | 13762 ft | 388 kts | 324° |
| 2026-05-01 10:47 | 48.73723 | 11.32463 | 14202 ft | 388 kts | 328° |
| 2026-05-01 10:47 | 48.75982 | 11.30200 | 14602 ft | 390 kts | 330° |
| 2026-05-01 10:47 | 48.78278 | 11.27988 | 14972 ft | 393 kts | 330° |
| 2026-05-01 10:47 | 48.80562 | 11.25786 | 15406 ft | 395 kts | 330° |
| 2026-05-01 10:48 | 48.82882 | 11.23537 | 15803 ft | 396 kts | 332° |
| 2026-05-01 10:48 | 48.85352 | 11.21698 | 16208 ft | 396 kts | 340° |
| 2026-05-01 10:48 | 48.87916 | 11.20169 | 16624 ft | 397 kts | 343° |
| 2026-05-01 10:48 | 48.90526 | 11.18765 | 17032 ft | 399 kts | 344° |
| 2026-05-01 10:49 | 48.93165 | 11.17427 | 17458 ft | 400 kts | 345° |
| 2026-05-01 10:49 | 48.95818 | 11.16111 | 17873 ft | 403 kts | 345° |
| 2026-05-01 10:49 | 48.98490 | 11.14787 | 18287 ft | 404 kts | 345° |
| 2026-05-01 10:49 | 49.01171 | 11.13450 | 18693 ft | 407 kts | 345° |
| 2026-05-01 10:50 | 49.03831 | 11.12113 | 19039 ft | 409 kts | 345° |
| 2026-05-01 10:50 | 49.06571 | 11.10725 | 19414 ft | 410 kts | 345° |
| 2026-05-01 10:50 | 49.09247 | 11.09362 | 19757 ft | 412 kts | 345° |
| 2026-05-01 10:50 | 49.11971 | 11.07969 | 20054 ft | 415 kts | 344° |
| 2026-05-01 10:51 | 49.14716 | 11.06571 | 20401 ft | 417 kts | 344° |
| 2026-05-01 10:51 | 49.17472 | 11.05162 | 20760 ft | 418 kts | 344° |
| 2026-05-01 10:51 | 49.20232 | 11.03750 | 21116 ft | 419 kts | 344° |
| 2026-05-01 10:51 | 49.23005 | 11.02329 | 21465 ft | 421 kts | 344° |
| 2026-05-01 10:52 | 49.25784 | 11.00895 | 21787 ft | 423 kts | 344° |
| 2026-05-01 10:52 | 49.28578 | 10.99449 | 22120 ft | 424 kts | 344° |
| 2026-05-01 10:52 | 49.31337 | 10.98020 | 22442 ft | 426 kts | 344° |
| 2026-05-01 10:52 | 49.34147 | 10.96561 | 22777 ft | 427 kts | 343° |
| 2026-05-01 10:53 | 49.36889 | 10.94743 | 23091 ft | 432 kts | 334° |
| 2026-05-01 10:53 | 49.39394 | 10.92159 | 23412 ft | 437 kts | 322° |
| 2026-05-01 10:53 | 49.41576 | 10.88879 | 23733 ft | 441 kts | 315° |
| 2026-05-01 10:53 | 49.43609 | 10.85334 | 24023 ft | 444 kts | 312° |
| 2026-05-01 10:54 | 49.45569 | 10.81654 | 24285 ft | 446 kts | 311° |
| 2026-05-01 10:54 | 49.47474 | 10.77961 | 24533 ft | 447 kts | 310° |
| 2026-05-01 10:54 | 49.49401 | 10.74197 | 24779 ft | 449 kts | 310° |
| 2026-05-01 10:54 | 49.51341 | 10.70422 | 25047 ft | 450 kts | 310° |
| 2026-05-01 10:55 | 49.53299 | 10.66639 | 25313 ft | 452 kts | 311° |
| 2026-05-01 10:55 | 49.55266 | 10.62860 | 25585 ft | 453 kts | 311° |
| 2026-05-01 10:55 | 49.57241 | 10.59079 | 25864 ft | 454 kts | 311° |
| 2026-05-01 10:55 | 49.59229 | 10.55281 | 26145 ft | 456 kts | 311° |
| 2026-05-01 10:56 | 49.61220 | 10.51469 | 26431 ft | 457 kts | 311° |
| 2026-05-01 10:56 | 49.63215 | 10.47645 | 26731 ft | 459 kts | 311° |
| 2026-05-01 10:56 | 49.65191 | 10.43850 | 27025 ft | 460 kts | 311° |
| 2026-05-01 10:56 | 49.67169 | 10.39953 | 27307 ft | 462 kts | 308° |
| 2026-05-01 10:57 | 49.69026 | 10.35886 | 27597 ft | 464 kts | 306° |
| 2026-05-01 10:57 | 49.70814 | 10.31725 | 27921 ft | 466 kts | 305° |
| 2026-05-01 10:57 | 49.72592 | 10.27522 | 28224 ft | 468 kts | 305° |
| 2026-05-01 10:57 | 49.74379 | 10.23312 | 28543 ft | 469 kts | 305° |
| 2026-05-01 10:58 | 49.76190 | 10.19091 | 28826 ft | 472 kts | 305° |
| 2026-05-01 10:58 | 49.77994 | 10.14928 | 29132 ft | 473 kts | 306° |
| 2026-05-01 10:58 | 49.79838 | 10.10698 | 29439 ft | 475 kts | 306° |
| 2026-05-01 10:58 | 49.81693 | 10.06456 | 29767 ft | 477 kts | 306° |
| 2026-05-01 10:59 | 49.83556 | 10.02197 | 30093 ft | 478 kts | 306° |
| 2026-05-01 10:59 | 49.85422 | 9.97926 | 30414 ft | 479 kts | 306° |
| 2026-05-01 10:59 | 49.87293 | 9.93638 | 30709 ft | 480 kts | 306° |
| 2026-05-01 10:59 | 49.89163 | 9.89342 | 30951 ft | 482 kts | 306° |
| 2026-05-01 11:00 | 49.91041 | 9.85020 | 31186 ft | 485 kts | 306° |
| 2026-05-01 11:00 | 49.92289 | 9.82144 | 31326 ft | 486 kts | 306° |
| 2026-05-01 11:00 | 49.94175 | 9.77787 | 31615 ft | 486 kts | 306° |
| 2026-05-01 11:00 | 49.96059 | 9.73426 | 31937 ft | 486 kts | 306° |
| 2026-05-01 11:01 | 49.98547 | 9.67656 | 32369 ft | 485 kts | 306° |
| 2026-05-01 11:01 | 50.00418 | 9.63309 | 32745 ft | 483 kts | 306° |
| 2026-05-01 11:01 | 50.02282 | 9.58969 | 33130 ft | 481 kts | 306° |
| 2026-05-01 11:01 | 50.04130 | 9.54663 | 33544 ft | 478 kts | 306° |
| 2026-05-01 11:02 | 50.05301 | 9.51772 | 33783 ft | 478 kts | 302° |
| 2026-05-01 11:02 | 50.06787 | 9.47136 | 34080 ft | 480 kts | 294° |
| 2026-05-01 11:02 | 50.07921 | 9.42249 | 34394 ft | 480 kts | 290° |
| 2026-05-01 11:02 | 50.08942 | 9.37303 | 34685 ft | 479 kts | 289° |
| 2026-05-01 11:03 | 50.10215 | 9.30726 | 35035 ft | 479 kts | 288° |
| 2026-05-01 11:03 | 50.11149 | 9.25755 | 35307 ft | 478 kts | 288° |
| 2026-05-01 11:03 | 50.11778 | 9.22394 | 35490 ft | 478 kts | 288° |
| 2026-05-01 11:03 | 50.13009 | 9.15817 | 35821 ft | 478 kts | 288° |
| 2026-05-01 11:04 | 50.13627 | 9.12528 | 35969 ft | 478 kts | 288° |
| 2026-05-01 11:04 | 50.14562 | 9.07563 | 36223 ft | 478 kts | 288° |
| 2026-05-01 11:04 | 50.15499 | 9.02589 | 36502 ft | 477 kts | 288° |
| 2026-05-01 11:04 | 50.16432 | 8.97636 | 36745 ft | 476 kts | 288° |
| 2026-05-01 11:05 | 50.17363 | 8.92682 | 36982 ft | 476 kts | 288° |
| 2026-05-01 11:05 | 50.18292 | 8.87726 | 37192 ft | 476 kts | 288° |
| 2026-05-01 11:05 | 50.19219 | 8.82773 | 37408 ft | 475 kts | 288° |
| 2026-05-01 11:05 | 50.20145 | 8.77814 | 37598 ft | 476 kts | 288° |
| 2026-05-01 11:06 | 50.21065 | 8.72863 | 37831 ft | 475 kts | 288° |
| 2026-05-01 11:06 | 50.21971 | 8.67974 | 38044 ft | 475 kts | 288° |
| 2026-05-01 11:06 | 50.22885 | 8.63032 | 38289 ft | 473 kts | 288° |
| 2026-05-01 11:07 | 50.25626 | 8.48133 | 38370 ft | 477 kts | 287° |
| 2026-05-01 11:07 | 50.27445 | 8.38170 | 38364 ft | 477 kts | 288° |
| 2026-05-01 11:08 | 50.29243 | 8.28271 | 38359 ft | 476 kts | 287° |
| 2026-05-01 11:09 | 50.31937 | 8.13347 | 38363 ft | 475 kts | 287° |
| 2026-05-01 11:09 | 50.33718 | 8.03406 | 38363 ft | 475 kts | 287° |
| 2026-05-01 11:10 | 50.36360 | 7.88560 | 38359 ft | 474 kts | 287° |
| 2026-05-01 11:10 | 50.38124 | 7.78591 | 38358 ft | 476 kts | 286° |
| 2026-05-01 11:11 | 50.39880 | 7.68600 | 38353 ft | 474 kts | 286° |
| 2026-05-01 11:11 | 50.41621 | 7.58639 | 38351 ft | 474 kts | 286° |
| 2026-05-01 11:12 | 50.43355 | 7.48663 | 38353 ft | 475 kts | 286° |
| 2026-05-01 11:12 | 50.45070 | 7.38746 | 38346 ft | 474 kts | 286° |
| 2026-05-01 11:13 | 50.46787 | 7.28754 | 38350 ft | 475 kts | 285° |
| 2026-05-01 11:13 | 50.48499 | 7.18739 | 38345 ft | 475 kts | 285° |
| 2026-05-01 11:14 | 50.50202 | 7.08707 | 38344 ft | 475 kts | 285° |
| 2026-05-01 11:14 | 50.51884 | 6.98749 | 38329 ft | 475 kts | 285° |
| 2026-05-01 11:15 | 50.53572 | 6.88705 | 38331 ft | 476 kts | 285° |
| 2026-05-01 11:15 | 50.55251 | 6.78647 | 38312 ft | 476 kts | 285° |
| 2026-05-01 11:16 | 50.56920 | 6.68592 | 38293 ft | 475 kts | 285° |
| 2026-05-01 11:16 | 50.58571 | 6.58590 | 38292 ft | 476 kts | 284° |
| 2026-05-01 11:17 | 50.60225 | 6.48509 | 38283 ft | 476 kts | 284° |
| 2026-05-01 11:17 | 50.61872 | 6.38412 | 38287 ft | 476 kts | 284° |
| 2026-05-01 11:18 | 50.63510 | 6.28302 | 38281 ft | 477 kts | 284° |
| 2026-05-01 11:18 | 50.65129 | 6.18253 | 38283 ft | 476 kts | 284° |
| 2026-05-01 11:19 | 50.66750 | 6.08133 | 38278 ft | 476 kts | 284° |
| 2026-05-01 11:19 | 50.68362 | 5.98001 | 38271 ft | 477 kts | 284° |
| 2026-05-01 11:20 | 50.69967 | 5.87855 | 38272 ft | 477 kts | 283° |
| 2026-05-01 11:20 | 50.71553 | 5.77767 | 38270 ft | 477 kts | 283° |
| 2026-05-01 11:21 | 50.73140 | 5.67609 | 38269 ft | 477 kts | 283° |
| 2026-05-01 11:21 | 50.74721 | 5.57428 | 38290 ft | 478 kts | 283° |
| 2026-05-01 11:22 | 50.76294 | 5.47221 | 38290 ft | 479 kts | 283° |
| 2026-05-01 11:22 | 50.77852 | 5.37057 | 38288 ft | 479 kts | 283° |
| 2026-05-01 11:23 | 50.79410 | 5.26832 | 38286 ft | 479 kts | 283° |
| 2026-05-01 11:23 | 50.80961 | 5.16587 | 38276 ft | 479 kts | 282° |
| 2026-05-01 11:24 | 50.82503 | 5.06331 | 38279 ft | 480 kts | 282° |
| 2026-05-01 11:25 | 50.84792 | 4.90990 | 38276 ft | 480 kts | 282° |
| 2026-05-01 11:25 | 50.87072 | 4.75556 | 38277 ft | 480 kts | 282° |
| 2026-05-01 11:26 | 50.89326 | 4.60174 | 38265 ft | 482 kts | 282° |
| 2026-05-01 11:27 | 50.91719 | 4.50265 | 38268 ft | 484 kts | 298° |
| 2026-05-01 11:27 | 50.95095 | 4.41016 | 38265 ft | 485 kts | 300° |
| 2026-05-01 11:28 | 50.98621 | 4.31875 | 38265 ft | 485 kts | 300° |
| 2026-05-01 11:28 | 51.02127 | 4.22792 | 38266 ft | 486 kts | 300° |
| 2026-05-01 11:29 | 51.07373 | 4.09025 | 38259 ft | 485 kts | 300° |
| 2026-05-01 11:30 | 51.12592 | 3.95212 | 38241 ft | 486 kts | 300° |
| 2026-05-01 11:30 | 51.16042 | 3.86042 | 38241 ft | 486 kts | 299° |
| 2026-05-01 11:31 | 51.19507 | 3.76797 | 38239 ft | 486 kts | 299° |
| 2026-05-01 11:31 | 51.22812 | 3.67379 | 38237 ft | 487 kts | 292° |
| 2026-05-01 11:32 | 51.24790 | 3.57117 | 38232 ft | 484 kts | 281° |
| 2026-05-01 11:32 | 51.26226 | 3.46694 | 38233 ft | 484 kts | 280° |
| 2026-05-01 11:33 | 51.27578 | 3.36170 | 38231 ft | 484 kts | 279° |
| 2026-05-01 11:33 | 51.28910 | 3.25636 | 38233 ft | 485 kts | 279° |
| 2026-05-01 11:34 | 51.30245 | 3.15070 | 38234 ft | 485 kts | 279° |
| 2026-05-01 11:34 | 51.31571 | 3.04577 | 38234 ft | 485 kts | 279° |
| 2026-05-01 11:35 | 51.32900 | 2.94015 | 38228 ft | 485 kts | 279° |
| 2026-05-01 11:35 | 51.34219 | 2.83449 | 38228 ft | 485 kts | 279° |
| 2026-05-01 11:36 | 51.35531 | 2.72866 | 38229 ft | 485 kts | 279° |
| 2026-05-01 11:36 | 51.36831 | 2.62348 | 38225 ft | 485 kts | 278° |
| 2026-05-01 11:37 | 51.38127 | 2.51750 | 38221 ft | 485 kts | 278° |
| 2026-05-01 11:37 | 51.39414 | 2.41154 | 38222 ft | 485 kts | 278° |
| 2026-05-01 11:38 | 51.40692 | 2.30546 | 38223 ft | 485 kts | 278° |
| 2026-05-01 11:38 | 51.41968 | 2.19938 | 38225 ft | 485 kts | 278° |
| 2026-05-01 11:39 | 51.43255 | 2.09401 | 38222 ft | 485 kts | 278° |
| 2026-05-01 11:39 | 51.44544 | 1.98792 | 38228 ft | 485 kts | 278° |
| 2026-05-01 11:40 | 51.45811 | 1.88165 | 38230 ft | 485 kts | 278° |
| 2026-05-01 11:40 | 51.47047 | 1.77535 | 38224 ft | 485 kts | 277° |
| 2026-05-01 11:41 | 51.48255 | 1.66962 | 38216 ft | 485 kts | 277° |
| 2026-05-01 11:41 | 51.49468 | 1.56309 | 38225 ft | 485 kts | 277° |
| 2026-05-01 11:42 | 51.50673 | 1.45661 | 38219 ft | 485 kts | 277° |
| 2026-05-01 11:42 | 51.51868 | 1.35006 | 38222 ft | 485 kts | 277° |
| 2026-05-01 11:43 | 51.53048 | 1.24410 | 38207 ft | 485 kts | 277° |
| 2026-05-01 11:43 | 51.54226 | 1.13741 | 38199 ft | 485 kts | 277° |
| 2026-05-01 11:44 | 51.55419 | 0.97650 | 38199 ft | 483 kts | 272° |
| 2026-05-01 11:44 | 51.55988 | 0.86891 | 38188 ft | 484 kts | 272° |
| 2026-05-01 11:45 | 51.56604 | 0.76202 | 38176 ft | 484 kts | 272° |
| 2026-05-01 11:45 | 51.57258 | 0.65429 | 38187 ft | 484 kts | 272° |
| 2026-05-01 11:46 | 51.57913 | 0.54659 | 38184 ft | 484 kts | 272° |
| 2026-05-01 11:46 | 51.58557 | 0.43886 | 38181 ft | 484 kts | 272° |
| 2026-05-01 11:47 | 51.59185 | 0.33189 | 38183 ft | 484 kts | 272° |
| 2026-05-01 11:47 | 51.59805 | 0.22422 | 38181 ft | 483 kts | 272° |
| 2026-05-01 11:48 | 51.60416 | 0.11653 | 38183 ft | 483 kts | 272° |
| 2026-05-01 11:48 | 51.61013 | 0.00954 | 38183 ft | 483 kts | 272° |
| 2026-05-01 11:49 | 51.61603 | -0.09809 | 38181 ft | 482 kts | 272° |
| 2026-05-01 11:49 | 51.62220 | -0.20550 | 38184 ft | 482 kts | 273° |
| 2026-05-01 11:50 | 51.62890 | -0.31287 | 38184 ft | 482 kts | 273° |
| 2026-05-01 11:50 | 51.63553 | -0.42030 | 38157 ft | 482 kts | 273° |
| 2026-05-01 11:51 | 51.64192 | -0.52703 | 38158 ft | 482 kts | 272° |
| 2026-05-01 11:51 | 51.64820 | -0.63450 | 38158 ft | 482 kts | 272° |
| 2026-05-01 11:52 | 51.65438 | -0.74200 | 38157 ft | 482 kts | 272° |
| 2026-05-01 11:52 | 51.66046 | -0.84954 | 38154 ft | 482 kts | 272° |
| 2026-05-01 11:53 | 51.66635 | -0.95545 | 38156 ft | 482 kts | 272° |
| 2026-05-01 11:53 | 51.67219 | -1.06218 | 38156 ft | 482 kts | 272° |
| 2026-05-01 11:54 | 51.67798 | -1.16976 | 38338 ft | 482 kts | 272° |
| 2026-05-01 11:54 | 51.68084 | -1.22351 | 38555 ft | 481 kts | 272° |
| 2026-05-01 11:54 | 51.68367 | -1.27725 | 38754 ft | 481 kts | 272° |
| 2026-05-01 11:55 | 51.68647 | -1.33082 | 38911 ft | 480 kts | 272° |
| 2026-05-01 11:55 | 51.68921 | -1.38376 | 39050 ft | 480 kts | 272° |
| 2026-05-01 11:55 | 51.69196 | -1.43734 | 39163 ft | 480 kts | 272° |
| 2026-05-01 11:55 | 51.69468 | -1.49097 | 39308 ft | 480 kts | 272° |
| 2026-05-01 11:56 | 51.69738 | -1.54468 | 39415 ft | 480 kts | 272° |
| 2026-05-01 11:56 | 51.70005 | -1.59827 | 39518 ft | 480 kts | 272° |
| 2026-05-01 11:56 | 51.70270 | -1.65192 | 39639 ft | 480 kts | 272° |
| 2026-05-01 11:56 | 51.70536 | -1.70560 | 39737 ft | 481 kts | 272° |
| 2026-05-01 11:57 | 51.70867 | -1.75930 | 39849 ft | 481 kts | 274° |
| 2026-05-01 11:57 | 51.71260 | -1.81279 | 39958 ft | 481 kts | 275° |
| 2026-05-01 11:57 | 51.72086 | -1.91920 | 40140 ft | 482 kts | 275° |
| 2026-05-01 11:58 | 51.72883 | -2.02649 | 40161 ft | 482 kts | 274° |
| 2026-05-01 11:59 | 51.74011 | -2.18745 | 40160 ft | 481 kts | 274° |
| 2026-05-01 11:59 | 51.74743 | -2.29476 | 40162 ft | 481 kts | 274° |
| 2026-05-01 12:00 | 51.75821 | -2.45508 | 40172 ft | 481 kts | 274° |
| 2026-05-01 12:01 | 51.76883 | -2.61621 | 40162 ft | 481 kts | 273° |
| 2026-05-01 12:01 | 51.77578 | -2.72359 | 40166 ft | 481 kts | 273° |
| 2026-05-01 12:02 | 51.78260 | -2.83036 | 40159 ft | 481 kts | 273° |
| 2026-05-01 12:02 | 51.78937 | -2.93793 | 40168 ft | 482 kts | 273° |
| 2026-05-01 12:03 | 51.79605 | -3.04551 | 40157 ft | 481 kts | 273° |
| 2026-05-01 12:03 | 51.80262 | -3.15309 | 40160 ft | 481 kts | 272° |
| 2026-05-01 12:04 | 51.80905 | -3.25994 | 40162 ft | 481 kts | 272° |
| 2026-05-01 12:04 | 51.81542 | -3.36760 | 40171 ft | 481 kts | 272° |
| 2026-05-01 12:05 | 51.82170 | -3.47529 | 40177 ft | 481 kts | 272° |
| 2026-05-01 12:05 | 51.83785 | -3.63607 | 40184 ft | 485 kts | 278° |
| 2026-05-01 12:06 | 51.85147 | -3.74200 | 40187 ft | 485 kts | 278° |
| 2026-05-01 12:06 | 51.86533 | -3.84871 | 40186 ft | 485 kts | 278° |
| 2026-05-01 12:07 | 51.87904 | -3.95560 | 40192 ft | 485 kts | 278° |
| 2026-05-01 12:07 | 51.89260 | -4.06282 | 40191 ft | 486 kts | 278° |
| 2026-05-01 12:08 | 51.90598 | -4.16951 | 40187 ft | 487 kts | 278° |
| 2026-05-01 12:08 | 51.91934 | -4.27685 | 40187 ft | 486 kts | 278° |
| 2026-05-01 12:09 | 51.93261 | -4.38431 | 40181 ft | 486 kts | 277° |
| 2026-05-01 12:09 | 51.94579 | -4.49199 | 40182 ft | 487 kts | 277° |
| 2026-05-01 12:10 | 51.96532 | -4.65308 | 40181 ft | 488 kts | 277° |
| 2026-05-01 12:11 | 51.98472 | -4.81498 | 40182 ft | 488 kts | 277° |
| 2026-05-01 12:11 | 51.99753 | -4.92304 | 40204 ft | 488 kts | 277° |
| 2026-05-01 12:12 | 52.01025 | -5.03123 | 40173 ft | 488 kts | 276° |
| 2026-05-01 12:12 | 52.02280 | -5.13887 | 40189 ft | 488 kts | 276° |
| 2026-05-01 12:13 | 52.03981 | -5.24608 | 40187 ft | 492 kts | 283° |
| 2026-05-01 12:13 | 52.06070 | -5.35205 | 40187 ft | 493 kts | 284° |
| 2026-05-01 12:14 | 52.08217 | -5.45791 | 40173 ft | 493 kts | 284° |
| 2026-05-01 12:14 | 52.10338 | -5.56310 | 40172 ft | 493 kts | 284° |
| 2026-05-01 12:15 | 52.12454 | -5.66915 | 40183 ft | 493 kts | 284° |
| 2026-05-01 12:15 | 52.14555 | -5.77533 | 40174 ft | 493 kts | 284° |
| 2026-05-01 12:16 | 52.16652 | -5.88151 | 40183 ft | 493 kts | 284° |
| 2026-05-01 12:16 | 52.18795 | -5.98691 | 40172 ft | 494 kts | 284° |
| 2026-05-01 12:17 | 52.20964 | -6.09307 | 40172 ft | 494 kts | 284° |
| 2026-05-01 12:17 | 52.23118 | -6.19948 | 40166 ft | 494 kts | 284° |
| 2026-05-01 12:18 | 52.25253 | -6.30591 | 40165 ft | 494 kts | 284° |
| 2026-05-01 12:18 | 52.27364 | -6.41178 | 40161 ft | 494 kts | 284° |
| 2026-05-01 12:19 | 52.29478 | -6.51843 | 40162 ft | 494 kts | 284° |
| 2026-05-01 12:19 | 52.31584 | -6.62525 | 40156 ft | 494 kts | 284° |
| 2026-05-01 12:20 | 52.33681 | -6.73219 | 40156 ft | 494 kts | 284° |
| 2026-05-01 12:20 | 52.35754 | -6.83846 | 40156 ft | 494 kts | 284° |
| 2026-05-01 12:21 | 52.37834 | -6.94568 | 40154 ft | 494 kts | 284° |
| 2026-05-01 12:21 | 52.39903 | -7.05300 | 40150 ft | 495 kts | 284° |
| 2026-05-01 12:22 | 52.41965 | -7.16050 | 40151 ft | 495 kts | 284° |
| 2026-05-01 12:22 | 52.44018 | -7.26817 | 40147 ft | 495 kts | 283° |
| 2026-05-01 12:23 | 52.46047 | -7.37518 | 40140 ft | 495 kts | 283° |
| 2026-05-01 12:23 | 52.48079 | -7.48297 | 40145 ft | 495 kts | 283° |
| 2026-05-01 12:24 | 52.50104 | -7.59099 | 40127 ft | 496 kts | 283° |
| 2026-05-01 12:24 | 52.52122 | -7.69926 | 40125 ft | 496 kts | 283° |
| 2026-05-01 12:25 | 52.55117 | -7.86114 | 40116 ft | 496 kts | 283° |
| 2026-05-01 12:26 | 52.57109 | -7.96962 | 40115 ft | 496 kts | 283° |
| 2026-05-01 12:26 | 52.60079 | -8.13257 | 40109 ft | 496 kts | 283° |
| 2026-05-01 12:27 | 52.63016 | -8.29506 | 40105 ft | 496 kts | 283° |
| 2026-05-01 12:28 | 52.65942 | -8.45844 | 40098 ft | 496 kts | 283° |
| 2026-05-01 12:29 | 52.68844 | -8.62200 | 40100 ft | 496 kts | 283° |
| 2026-05-01 12:29 | 52.71713 | -8.78517 | 40101 ft | 496 kts | 283° |
| 2026-05-01 12:30 | 52.74573 | -8.94929 | 40083 ft | 496 kts | 283° |
| 2026-05-01 12:31 | 52.76467 | -9.05884 | 40084 ft | 496 kts | 283° |
| 2026-05-01 12:31 | 52.78339 | -9.16780 | 40086 ft | 497 kts | 283° |
| 2026-05-01 12:32 | 52.80217 | -9.27774 | 40084 ft | 497 kts | 283° |
| 2026-05-01 12:32 | 52.83014 | -9.44280 | 40083 ft | 497 kts | 283° |
| 2026-05-01 12:33 | 52.84867 | -9.55302 | 40084 ft | 497 kts | 283° |
| 2026-05-01 12:33 | 52.86696 | -9.66253 | 40097 ft | 497 kts | 283° |
| 2026-05-01 12:34 | 52.88529 | -9.77297 | 40089 ft | 498 kts | 283° |
| 2026-05-01 12:34 | 52.90352 | -9.88353 | 40089 ft | 498 kts | 283° |
| 2026-05-01 12:35 | 52.92166 | -9.99421 | 40091 ft | 498 kts | 283° |
| 2026-05-01 12:35 | 52.93956 | -10.10420 | 40092 ft | 498 kts | 283° |
| 2026-05-01 12:36 | 52.95750 | -10.21510 | 40094 ft | 498 kts | 283° |
| 2026-05-01 12:36 | 52.97532 | -10.32608 | 40089 ft | 498 kts | 283° |
| 2026-05-01 12:37 | 52.99306 | -10.43723 | 40086 ft | 498 kts | 282° |
| 2026-05-01 12:37 | 53.01059 | -10.54775 | 40086 ft | 498 kts | 282° |
| 2026-05-01 12:38 | 53.02812 | -10.65911 | 40080 ft | 498 kts | 282° |
| 2026-05-01 12:38 | 53.04554 | -10.77049 | 40080 ft | 498 kts | 282° |
| 2026-05-01 12:39 | 53.06286 | -10.88199 | 40078 ft | 498 kts | 282° |
| 2026-05-01 12:39 | 53.07996 | -10.99278 | 40078 ft | 498 kts | 282° |
| 2026-05-01 12:40 | 53.09708 | -11.10450 | 40075 ft | 498 kts | 282° |
| 2026-05-01 12:40 | 53.11408 | -11.21625 | 40075 ft | 498 kts | 282° |
| 2026-05-01 12:41 | 53.13098 | -11.32812 | 40071 ft | 498 kts | 282° |
| 2026-05-01 12:41 | 53.14768 | -11.43939 | 40069 ft | 499 kts | 282° |
| 2026-05-01 12:42 | 53.16439 | -11.55153 | 40064 ft | 499 kts | 282° |
| 2026-05-01 12:42 | 53.18100 | -11.66374 | 40064 ft | 498 kts | 282° |
| 2026-05-01 12:43 | 53.19749 | -11.77598 | 40061 ft | 498 kts | 282° |
| 2026-05-01 12:43 | 53.21374 | -11.88748 | 40059 ft | 498 kts | 282° |
| 2026-05-01 12:44 | 53.23004 | -11.99995 | 40058 ft | 499 kts | 282° |
| 2026-05-01 12:45 | 53.26232 | -12.22532 | 40055 ft | 499 kts | 282° |
| 2026-05-01 12:45 | 53.27819 | -12.33734 | 40054 ft | 499 kts | 281° |
| 2026-05-01 12:46 | 53.29407 | -12.45027 | 40049 ft | 499 kts | 281° |
| 2026-05-01 12:46 | 53.30985 | -12.56333 | 40051 ft | 499 kts | 282° |
| 2026-05-01 12:47 | 53.32550 | -12.67631 | 40045 ft | 499 kts | 282° |
| 2026-05-01 12:47 | 53.34095 | -12.78874 | 40050 ft | 499 kts | 282° |
| 2026-05-01 12:48 | 53.35640 | -12.90195 | 40049 ft | 499 kts | 282° |
| 2026-05-01 12:48 | 53.37173 | -13.01516 | 40047 ft | 498 kts | 281° |
| 2026-05-01 12:49 | 53.38695 | -13.12847 | 40045 ft | 498 kts | 282° |
| 2026-05-01 12:49 | 53.40194 | -13.24092 | 40045 ft | 498 kts | 282° |
| 2026-05-01 12:50 | 53.41692 | -13.35420 | 40050 ft | 498 kts | 282° |
| 2026-05-01 12:50 | 53.43181 | -13.46762 | 40052 ft | 498 kts | 281° |
| 2026-05-01 12:51 | 53.44658 | -13.58107 | 40058 ft | 497 kts | 282° |
| 2026-05-01 12:52 | 53.46841 | -13.75036 | 40068 ft | 497 kts | 281° |
| 2026-05-01 12:52 | 53.49008 | -13.92053 | 40067 ft | 497 kts | 281° |
| 2026-05-01 12:53 | 53.50060 | -14.09292 | 40081 ft | 495 kts | 270° |
| 2026-05-01 12:54 | 53.50122 | -14.20799 | 40087 ft | 497 kts | 270° |
| 2026-05-01 12:54 | 53.50115 | -14.38224 | 40091 ft | 497 kts | 269° |
| 2026-05-01 12:55 | 53.50110 | -14.55639 | 40103 ft | 497 kts | 269° |
| 2026-05-01 12:56 | 53.50099 | -14.67171 | 40108 ft | 496 kts | 269° |
| 2026-05-01 12:56 | 53.50078 | -14.78746 | 40109 ft | 495 kts | 269° |
| 2026-05-01 12:57 | 53.50045 | -14.90309 | 40122 ft | 495 kts | 269° |
| 2026-05-01 12:57 | 53.50052 | -15.07648 | 40131 ft | 495 kts | 271° |
| 2026-05-01 12:58 | 53.50313 | -15.19121 | 40129 ft | 495 kts | 273° |
| 2026-05-01 12:59 | 53.50708 | -15.36399 | 40142 ft | 493 kts | 272° |
| 2026-05-01 12:59 | 53.51012 | -15.53641 | 40148 ft | 492 kts | 272° |
| 2026-05-01 13:00 | 53.51276 | -15.70792 | 40160 ft | 492 kts | 272° |
| 2026-05-01 13:01 | 53.51520 | -15.88013 | 40162 ft | 491 kts | 273° |
| 2026-05-01 13:02 | 53.51740 | -16.05140 | 40162 ft | 491 kts | 273° |
| 2026-05-01 13:07 | 53.52601 | -17.31135 | 40203 ft | 490 kts | 272° |
| 2026-05-01 13:08 | 53.52613 | -17.42589 | 40208 ft | 490 kts | 271° |
| 2026-05-01 13:08 | 53.52615 | -17.53952 | 40208 ft | 490 kts | 271° |
| 2026-05-01 13:09 | 53.52606 | -17.65396 | 40216 ft | 490 kts | 272° |
| 2026-05-01 13:09 | 53.52587 | -17.76843 | 40217 ft | 490 kts | 271° |
| 2026-05-01 13:10 | 53.52555 | -17.88287 | 40219 ft | 489 kts | 272° |
| 2026-05-01 13:10 | 53.52514 | -17.99623 | 40224 ft | 488 kts | 271° |
| 2026-05-01 13:11 | 53.52461 | -18.11008 | 40227 ft | 487 kts | 271° |
| 2026-05-01 13:11 | 53.52398 | -18.22389 | 40227 ft | 487 kts | 271° |
| 2026-05-01 13:12 | 53.52324 | -18.33766 | 40233 ft | 487 kts | 271° |
| 2026-05-01 13:12 | 53.52239 | -18.45074 | 40230 ft | 487 kts | 271° |
| 2026-05-01 13:13 | 53.52144 | -18.56444 | 40243 ft | 487 kts | 271° |
| 2026-05-01 13:13 | 53.52037 | -18.67814 | 40243 ft | 487 kts | 271° |
| 2026-05-01 13:14 | 53.51921 | -18.79111 | 40247 ft | 487 kts | 271° |
| 2026-05-01 13:14 | 53.51793 | -18.90484 | 40247 ft | 487 kts | 271° |
| 2026-05-01 13:15 | 53.51655 | -19.01867 | 40250 ft | 487 kts | 270° |
| 2026-05-01 13:15 | 53.51505 | -19.13250 | 40249 ft | 487 kts | 270° |
| 2026-05-01 13:16 | 53.51345 | -19.24548 | 40253 ft | 487 kts | 271° |
| 2026-05-01 13:16 | 53.51174 | -19.35922 | 40254 ft | 487 kts | 270° |
| 2026-05-01 13:17 | 53.50799 | -19.58654 | 40257 ft | 485 kts | 271° |
| 2026-05-01 13:18 | 53.50492 | -19.75552 | 40260 ft | 484 kts | 270° |
| 2026-05-01 13:18 | 53.50275 | -19.86859 | 40268 ft | 485 kts | 270° |
| 2026-05-01 13:19 | 53.50046 | -19.98174 | 40265 ft | 485 kts | 270° |
| 2026-05-01 13:20 | 53.49297 | -20.15039 | 40274 ft | 485 kts | 266° |
| 2026-05-01 13:20 | 53.48548 | -20.26287 | 40277 ft | 485 kts | 266° |
| 2026-05-01 13:21 | 53.47488 | -20.43172 | 40277 ft | 485 kts | 266° |
| 2026-05-01 13:21 | 53.46807 | -20.54423 | 40283 ft | 485 kts | 266° |
| 2026-05-01 13:22 | 53.46120 | -20.65665 | 40293 ft | 484 kts | 266° |
| 2026-05-01 13:22 | 53.45426 | -20.76800 | 40287 ft | 482 kts | 266° |
| 2026-05-01 13:23 | 53.44717 | -20.87979 | 40290 ft | 482 kts | 266° |
| 2026-05-01 13:23 | 53.43999 | -20.99149 | 40296 ft | 482 kts | 266° |
| 2026-05-01 13:24 | 53.43269 | -21.10316 | 40285 ft | 482 kts | 266° |
| 2026-05-01 13:25 | 53.42161 | -21.26976 | 40306 ft | 481 kts | 266° |
| 2026-05-01 13:25 | 53.41408 | -21.38117 | 40301 ft | 481 kts | 266° |
| 2026-05-01 13:26 | 53.40643 | -21.49255 | 40305 ft | 481 kts | 265° |
| 2026-05-01 13:26 | 53.39868 | -21.60395 | 40307 ft | 481 kts | 265° |
| 2026-05-01 13:27 | 53.39088 | -21.71450 | 40303 ft | 481 kts | 265° |
| 2026-05-01 13:27 | 53.37891 | -21.88140 | 40313 ft | 481 kts | 265° |
| 2026-05-01 13:28 | 53.36675 | -22.04752 | 40318 ft | 481 kts | 265° |
| 2026-05-01 13:29 | 53.35013 | -22.26971 | 40324 ft | 481 kts | 265° |
| 2026-05-01 13:31 | 53.32446 | -22.60202 | 40329 ft | 481 kts | 265° |
| 2026-05-01 13:32 | 53.30231 | -22.87945 | 40332 ft | 482 kts | 265° |
| 2026-05-01 13:33 | 53.27959 | -23.15551 | 40337 ft | 480 kts | 264° |
| 2026-05-01 13:34 | 53.26093 | -23.37652 | 40347 ft | 480 kts | 264° |
| 2026-05-01 13:35 | 53.24674 | -23.54137 | 40348 ft | 480 kts | 264° |
| 2026-05-01 13:36 | 53.23225 | -23.70684 | 40340 ft | 480 kts | 264° |
| 2026-05-01 13:36 | 53.21754 | -23.87216 | 40355 ft | 480 kts | 264° |
| 2026-05-01 13:37 | 53.20929 | -23.96375 | 40353 ft | 480 kts | 264° |
| 2026-05-01 13:37 | 53.19763 | -24.09175 | 40363 ft | 480 kts | 264° |
| 2026-05-01 13:38 | 53.18238 | -24.25685 | 40360 ft | 480 kts | 264° |
| 2026-05-01 13:39 | 53.17216 | -24.36602 | 40369 ft | 480 kts | 264° |
| 2026-05-01 13:39 | 53.16177 | -24.47595 | 40375 ft | 480 kts | 263° |
| 2026-05-01 13:40 | 53.15129 | -24.58578 | 40369 ft | 480 kts | 263° |
| 2026-05-01 13:40 | 53.14070 | -24.69555 | 40371 ft | 480 kts | 263° |
| 2026-05-01 13:41 | 53.13000 | -24.80527 | 40374 ft | 480 kts | 263° |
| 2026-05-01 13:41 | 53.11929 | -24.91410 | 40380 ft | 480 kts | 263° |
| 2026-05-01 13:42 | 53.10842 | -25.02358 | 40384 ft | 480 kts | 263° |
| 2026-05-01 13:42 | 53.09744 | -25.13300 | 40384 ft | 478 kts | 263° |
| 2026-05-01 13:43 | 53.08647 | -25.24128 | 40381 ft | 477 kts | 263° |
| 2026-05-01 13:43 | 53.07535 | -25.35003 | 40390 ft | 477 kts | 263° |
| 2026-05-01 13:44 | 53.06414 | -25.45859 | 40388 ft | 476 kts | 263° |
| 2026-05-01 13:44 | 53.05284 | -25.56710 | 40390 ft | 477 kts | 263° |
| 2026-05-01 13:45 | 53.04151 | -25.67487 | 40399 ft | 477 kts | 263° |
| 2026-05-01 13:45 | 53.03000 | -25.78330 | 40395 ft | 477 kts | 263° |
| 2026-05-01 13:46 | 53.01841 | -25.89162 | 40403 ft | 476 kts | 263° |
| 2026-05-01 13:46 | 53.00671 | -25.99990 | 40401 ft | 476 kts | 263° |
| 2026-05-01 13:47 | 52.99500 | -26.10737 | 40405 ft | 476 kts | 263° |
| 2026-05-01 13:47 | 52.98310 | -26.21553 | 40406 ft | 476 kts | 263° |
| 2026-05-01 13:48 | 52.97110 | -26.32370 | 40411 ft | 477 kts | 263° |
| 2026-05-01 13:48 | 52.95899 | -26.43195 | 40411 ft | 478 kts | 263° |
| 2026-05-01 13:49 | 52.94685 | -26.53947 | 40411 ft | 478 kts | 262° |
| 2026-05-01 13:49 | 52.93454 | -26.64766 | 40417 ft | 477 kts | 262° |
| 2026-05-01 13:50 | 52.92213 | -26.75574 | 40417 ft | 477 kts | 262° |
| 2026-05-01 13:50 | 52.90961 | -26.86381 | 40423 ft | 478 kts | 262° |
| 2026-05-01 13:51 | 52.89709 | -26.97111 | 40420 ft | 478 kts | 262° |
| 2026-05-01 13:51 | 52.88438 | -27.07905 | 40428 ft | 478 kts | 262° |
| 2026-05-01 13:52 | 52.87157 | -27.18697 | 40428 ft | 478 kts | 262° |
| 2026-05-01 13:52 | 52.85866 | -27.29480 | 40425 ft | 478 kts | 262° |
| 2026-05-01 13:53 | 52.84574 | -27.40194 | 40430 ft | 479 kts | 262° |
| 2026-05-01 13:53 | 52.82600 | -27.56385 | 40433 ft | 479 kts | 262° |
| 2026-05-01 13:54 | 52.81272 | -27.67174 | 40438 ft | 479 kts | 262° |
| 2026-05-01 13:54 | 52.79934 | -27.77953 | 40433 ft | 479 kts | 262° |
| 2026-05-01 13:55 | 52.78587 | -27.88725 | 40443 ft | 479 kts | 262° |
| 2026-05-01 13:55 | 52.77239 | -27.99425 | 40443 ft | 479 kts | 262° |
| 2026-05-01 13:56 | 52.75871 | -28.10190 | 40443 ft | 479 kts | 261° |
| 2026-05-01 13:56 | 52.74494 | -28.20951 | 40443 ft | 479 kts | 261° |
| 2026-05-01 13:57 | 52.73341 | -28.29891 | 40451 ft | 479 kts | 261° |
| 2026-05-01 13:57 | 52.71718 | -28.42382 | 40452 ft | 479 kts | 261° |
| 2026-05-01 13:58 | 52.70311 | -28.53127 | 40452 ft | 480 kts | 261° |
| 2026-05-01 13:58 | 52.68893 | -28.63876 | 40453 ft | 480 kts | 261° |
| 2026-05-01 13:59 | 52.67465 | -28.74612 | 40444 ft | 480 kts | 261° |
| 2026-05-01 13:59 | 52.66029 | -28.85333 | 40457 ft | 479 kts | 261° |
| 2026-05-01 14:00 | 52.64594 | -28.95969 | 40460 ft | 479 kts | 261° |
| 2026-05-01 14:00 | 52.63141 | -29.06660 | 40465 ft | 479 kts | 261° |
| 2026-05-01 14:01 | 52.61678 | -29.17349 | 40462 ft | 479 kts | 261° |
| 2026-05-01 14:01 | 52.60204 | -29.28040 | 40464 ft | 479 kts | 260° |
| 2026-05-01 14:02 | 52.58734 | -29.38619 | 40463 ft | 477 kts | 260° |
| 2026-05-01 14:02 | 52.57250 | -29.49227 | 40468 ft | 476 kts | 260° |
| 2026-05-01 14:03 | 52.55757 | -29.59827 | 40467 ft | 476 kts | 260° |
| 2026-05-01 14:03 | 52.54256 | -29.70415 | 40474 ft | 476 kts | 260° |
| 2026-05-01 14:04 | 52.52755 | -29.80924 | 40471 ft | 476 kts | 259° |
| 2026-05-01 14:04 | 52.51481 | -29.89789 | 40480 ft | 476 kts | 259° |
| 2026-05-01 14:05 | 52.49949 | -30.02128 | 40477 ft | 473 kts | 266° |
| 2026-05-01 14:05 | 52.49246 | -30.12856 | 40488 ft | 473 kts | 267° |
| 2026-05-01 14:06 | 52.48639 | -30.23522 | 40484 ft | 473 kts | 268° |
| 2026-05-01 14:06 | 52.48029 | -30.34263 | 40482 ft | 473 kts | 267° |
| 2026-05-01 14:07 | 52.47398 | -30.45010 | 40488 ft | 473 kts | 267° |
| 2026-05-01 14:08 | 52.46421 | -30.61126 | 40487 ft | 474 kts | 267° |
| 2026-05-01 14:08 | 52.45762 | -30.71797 | 40492 ft | 474 kts | 266° |
| 2026-05-01 14:09 | 52.45089 | -30.82532 | 40488 ft | 474 kts | 266° |
| 2026-05-01 14:09 | 52.44407 | -30.93266 | 40493 ft | 473 kts | 266° |
| 2026-05-01 14:10 | 52.43716 | -31.03970 | 40492 ft | 472 kts | 266° |
| 2026-05-01 14:10 | 52.43021 | -31.14591 | 40496 ft | 472 kts | 266° |
| 2026-05-01 14:11 | 52.42312 | -31.25281 | 40496 ft | 472 kts | 266° |
| 2026-05-01 14:11 | 52.41230 | -31.41316 | 40497 ft | 472 kts | 265° |
| 2026-05-01 14:12 | 52.40496 | -31.52003 | 40497 ft | 472 kts | 265° |
| 2026-05-01 14:12 | 52.39757 | -31.62621 | 40497 ft | 472 kts | 265° |
| 2026-05-01 14:13 | 52.39131 | -31.71503 | 40497 ft | 472 kts | 265° |
| 2026-05-01 14:13 | 52.38241 | -31.83980 | 40504 ft | 472 kts | 265° |
| 2026-05-01 14:14 | 52.37600 | -31.92857 | 40503 ft | 472 kts | 265° |
| 2026-05-01 14:14 | 52.36692 | -32.05263 | 40508 ft | 473 kts | 265° |
| 2026-05-01 14:15 | 52.35901 | -32.15924 | 40508 ft | 471 kts | 265° |
| 2026-05-01 14:15 | 52.35101 | -32.26558 | 40509 ft | 471 kts | 264° |
| 2026-05-01 14:16 | 52.34431 | -32.35384 | 40508 ft | 471 kts | 264° |
| 2026-05-01 14:16 | 52.33482 | -32.47734 | 40508 ft | 471 kts | 264° |
| 2026-05-01 14:17 | 52.32654 | -32.58360 | 40508 ft | 472 kts | 264° |
| 2026-05-01 14:17 | 52.31958 | -32.67201 | 40511 ft | 472 kts | 264° |
| 2026-05-01 14:18 | 52.31112 | -32.77826 | 40511 ft | 472 kts | 264° |
| 2026-05-01 14:18 | 52.30256 | -32.88450 | 40516 ft | 472 kts | 264° |
| 2026-05-01 14:19 | 52.29398 | -32.98994 | 40516 ft | 472 kts | 263° |
| 2026-05-01 14:19 | 52.28522 | -33.09625 | 40519 ft | 472 kts | 263° |
| 2026-05-01 14:20 | 52.27190 | -33.25567 | 40522 ft | 472 kts | 263° |
| 2026-05-01 14:21 | 52.26297 | -33.36112 | 40522 ft | 472 kts | 263° |
| 2026-05-01 14:21 | 52.25390 | -33.46704 | 40517 ft | 471 kts | 263° |
| 2026-05-01 14:22 | 52.24012 | -33.62588 | 40522 ft | 471 kts | 263° |
| 2026-05-01 14:22 | 52.23081 | -33.73168 | 40522 ft | 471 kts | 262° |
| 2026-05-01 14:23 | 52.22148 | -33.83671 | 40521 ft | 471 kts | 262° |
| 2026-05-01 14:23 | 52.21198 | -33.94246 | 40524 ft | 471 kts | 262° |
| 2026-05-01 14:24 | 52.20239 | -34.04814 | 40524 ft | 472 kts | 262° |
| 2026-05-01 14:24 | 52.19270 | -34.15385 | 40526 ft | 472 kts | 262° |
| 2026-05-01 14:25 | 52.18297 | -34.25890 | 40526 ft | 472 kts | 262° |
| 2026-05-01 14:25 | 52.17309 | -34.36451 | 40538 ft | 472 kts | 262° |
| 2026-05-01 14:26 | 52.15809 | -34.52294 | 40531 ft | 472 kts | 261° |
| 2026-05-01 14:27 | 52.14796 | -34.62859 | 40533 ft | 472 kts | 261° |
| 2026-05-01 14:27 | 52.13781 | -34.73347 | 40540 ft | 472 kts | 261° |
| 2026-05-01 14:28 | 52.12232 | -34.89156 | 40533 ft | 472 kts | 261° |
| 2026-05-01 14:28 | 52.11188 | -34.99682 | 40533 ft | 472 kts | 261° |
| 2026-05-01 14:29 | 52.10140 | -35.10163 | 40532 ft | 473 kts | 260° |
| 2026-05-01 14:30 | 52.07992 | -35.31318 | 40535 ft | 474 kts | 260° |
| 2026-05-01 14:31 | 52.06356 | -35.47176 | 40537 ft | 474 kts | 259° |
| 2026-05-01 14:31 | 52.05262 | -35.57670 | 40534 ft | 474 kts | 259° |
| 2026-05-01 14:32 | 52.04148 | -35.68251 | 40535 ft | 476 kts | 259° |
| 2026-05-01 14:32 | 52.03023 | -35.78841 | 40536 ft | 476 kts | 259° |
| 2026-05-01 14:33 | 52.01889 | -35.89419 | 40538 ft | 475 kts | 259° |
| 2026-05-01 14:33 | 52.00746 | -35.99991 | 40535 ft | 475 kts | 259° |
| 2026-05-01 14:34 | 51.99602 | -36.10484 | 40535 ft | 476 kts | 258° |
| 2026-05-01 14:34 | 51.98437 | -36.21074 | 40541 ft | 478 kts | 258° |
| 2026-05-01 14:35 | 51.97259 | -36.31684 | 40538 ft | 478 kts | 258° |
| 2026-05-01 14:35 | 51.96080 | -36.42216 | 40538 ft | 478 kts | 258° |
| 2026-05-01 14:36 | 51.94884 | -36.52816 | 40536 ft | 478 kts | 258° |
| 2026-05-01 14:36 | 51.93679 | -36.63406 | 40538 ft | 478 kts | 258° |
| 2026-05-01 14:37 | 51.92459 | -36.74026 | 40538 ft | 480 kts | 258° |
| 2026-05-01 14:37 | 51.91237 | -36.84581 | 40538 ft | 480 kts | 258° |
| 2026-05-01 14:38 | 51.89997 | -36.95209 | 40540 ft | 480 kts | 257° |
| 2026-05-01 14:38 | 51.88749 | -37.05818 | 40538 ft | 480 kts | 257° |
| 2026-05-01 14:39 | 51.87491 | -37.16415 | 40538 ft | 479 kts | 257° |
| 2026-05-01 14:39 | 51.86225 | -37.27004 | 40538 ft | 479 kts | 257° |
| 2026-05-01 14:40 | 51.84958 | -37.37508 | 40536 ft | 479 kts | 257° |
| 2026-05-01 14:40 | 51.83672 | -37.48089 | 40538 ft | 479 kts | 257° |
| 2026-05-01 14:41 | 51.82378 | -37.58652 | 40539 ft | 479 kts | 257° |
| 2026-05-01 14:41 | 51.81074 | -37.69218 | 40538 ft | 480 kts | 257° |
| 2026-05-01 14:42 | 51.79765 | -37.79737 | 40535 ft | 481 kts | 257° |
| 2026-05-01 14:42 | 51.78437 | -37.90326 | 40538 ft | 481 kts | 256° |
| 2026-05-01 14:43 | 51.77100 | -38.00907 | 40537 ft | 481 kts | 256° |
| 2026-05-01 14:43 | 51.75761 | -38.11416 | 40535 ft | 481 kts | 256° |
| 2026-05-01 14:44 | 51.74405 | -38.21989 | 40540 ft | 482 kts | 256° |
| 2026-05-01 14:44 | 51.72346 | -38.37881 | 40537 ft | 483 kts | 256° |
| 2026-05-01 14:45 | 51.70267 | -38.53757 | 40539 ft | 482 kts | 256° |
| 2026-05-01 14:46 | 51.68878 | -38.64258 | 40551 ft | 482 kts | 256° |
| 2026-05-01 14:46 | 51.66760 | -38.80133 | 40539 ft | 484 kts | 255° |
| 2026-05-01 14:47 | 51.65334 | -38.90725 | 40538 ft | 484 kts | 255° |
| 2026-05-01 14:48 | 51.63187 | -39.06525 | 40535 ft | 484 kts | 255° |
| 2026-05-01 14:48 | 51.61009 | -39.22374 | 40533 ft | 484 kts | 255° |
| 2026-05-01 14:49 | 51.58072 | -39.43488 | 40543 ft | 484 kts | 255° |
| 2026-05-01 14:50 | 51.55106 | -39.64513 | 40526 ft | 484 kts | 255° |
| 2026-05-01 14:51 | 51.52850 | -39.80311 | 40528 ft | 484 kts | 255° |
| 2026-05-01 14:52 | 51.50585 | -39.96014 | 40529 ft | 484 kts | 255° |
| 2026-05-01 14:53 | 51.49292 | -40.12110 | 40529 ft | 486 kts | 263° |
| 2026-05-01 14:53 | 51.48680 | -40.22898 | 40533 ft | 486 kts | 263° |
| 2026-05-01 14:54 | 51.48071 | -40.33701 | 40522 ft | 486 kts | 263° |
| 2026-05-01 14:54 | 51.47446 | -40.44424 | 40529 ft | 486 kts | 263° |
| 2026-05-01 14:55 | 51.46799 | -40.55212 | 40524 ft | 486 kts | 263° |
| 2026-05-01 14:55 | 51.46141 | -40.66000 | 40519 ft | 486 kts | 263° |
| 2026-05-01 14:56 | 51.45472 | -40.76783 | 40527 ft | 486 kts | 263° |
| 2026-05-01 14:56 | 51.44799 | -40.87491 | 40525 ft | 486 kts | 263° |
| 2026-05-01 14:57 | 51.44112 | -40.98266 | 40519 ft | 486 kts | 263° |
| 2026-05-01 14:57 | 51.43062 | -41.14422 | 40519 ft | 486 kts | 263° |
| 2026-05-01 14:58 | 51.42350 | -41.25187 | 40521 ft | 486 kts | 262° |
| 2026-05-01 14:58 | 51.41633 | -41.35879 | 40524 ft | 486 kts | 262° |
| 2026-05-01 14:59 | 51.40903 | -41.46623 | 40519 ft | 485 kts | 262° |
| 2026-05-01 14:59 | 51.40162 | -41.57364 | 40520 ft | 485 kts | 262° |
| 2026-05-01 15:00 | 51.39034 | -41.73464 | 40519 ft | 485 kts | 262° |
| 2026-05-01 15:01 | 51.38275 | -41.84117 | 40519 ft | 485 kts | 262° |
| 2026-05-01 15:01 | 51.37500 | -41.94848 | 40514 ft | 485 kts | 262° |
| 2026-05-01 15:02 | 51.36717 | -42.05555 | 40513 ft | 484 kts | 262° |
| 2026-05-01 15:02 | 51.35925 | -42.16248 | 40514 ft | 484 kts | 262° |
| 2026-05-01 15:03 | 51.35129 | -42.26859 | 40513 ft | 483 kts | 262° |
| 2026-05-01 15:03 | 51.34318 | -42.37533 | 40510 ft | 483 kts | 262° |
| 2026-05-01 15:04 | 51.33498 | -42.48200 | 40511 ft | 483 kts | 262° |
| 2026-05-01 15:04 | 51.32668 | -42.58872 | 40507 ft | 483 kts | 262° |
| 2026-05-01 15:05 | 51.31834 | -42.69458 | 40509 ft | 483 kts | 262° |
| 2026-05-01 15:05 | 51.30985 | -42.80118 | 40509 ft | 483 kts | 261° |
| 2026-05-01 15:06 | 51.30127 | -42.90767 | 40506 ft | 483 kts | 261° |
| 2026-05-01 15:06 | 51.29259 | -43.01403 | 40516 ft | 482 kts | 261° |
| 2026-05-01 15:07 | 51.28383 | -43.12026 | 40508 ft | 482 kts | 261° |
| 2026-05-01 15:07 | 51.27503 | -43.22564 | 40508 ft | 482 kts | 261° |
| 2026-05-01 15:08 | 51.26609 | -43.33168 | 40507 ft | 482 kts | 261° |
| 2026-05-01 15:08 | 51.25704 | -43.43777 | 40507 ft | 482 kts | 261° |
| 2026-05-01 15:09 | 51.24790 | -43.54373 | 40506 ft | 482 kts | 261° |
| 2026-05-01 15:09 | 51.23873 | -43.64899 | 40509 ft | 482 kts | 261° |
| 2026-05-01 15:10 | 51.22940 | -43.75483 | 40502 ft | 482 kts | 261° |
| 2026-05-01 15:10 | 51.21524 | -43.91344 | 40501 ft | 481 kts | 260° |
| 2026-05-01 15:11 | 51.20095 | -44.07107 | 40501 ft | 481 kts | 261° |
| 2026-05-01 15:12 | 51.19127 | -44.17654 | 40500 ft | 481 kts | 260° |
| 2026-05-01 15:12 | 51.17655 | -44.33475 | 40495 ft | 481 kts | 260° |
| 2026-05-01 15:14 | 51.15161 | -44.59755 | 40495 ft | 481 kts | 260° |
| 2026-05-01 15:14 | 51.13634 | -44.75541 | 40495 ft | 481 kts | 260° |
| 2026-05-01 15:15 | 51.11567 | -44.96542 | 40497 ft | 482 kts | 260° |
| 2026-05-01 15:16 | 51.09455 | -45.17601 | 40492 ft | 482 kts | 259° |
| 2026-05-01 15:18 | 51.06767 | -45.43845 | 40490 ft | 483 kts | 259° |
| 2026-05-01 15:19 | 51.04566 | -45.64899 | 40486 ft | 483 kts | 259° |
| 2026-05-01 15:19 | 51.02899 | -45.80600 | 40489 ft | 483 kts | 259° |
| 2026-05-01 15:20 | 51.01201 | -45.96372 | 40484 ft | 483 kts | 259° |
| 2026-05-01 15:21 | 51.00058 | -46.06877 | 40484 ft | 483 kts | 259° |
| 2026-05-01 15:21 | 50.98905 | -46.17384 | 40481 ft | 483 kts | 259° |
| 2026-05-01 15:22 | 50.97166 | -46.33063 | 40482 ft | 483 kts | 258° |
| 2026-05-01 15:22 | 50.95991 | -46.43538 | 40482 ft | 482 kts | 258° |
| 2026-05-01 15:23 | 50.94807 | -46.54009 | 40481 ft | 482 kts | 258° |
| 2026-05-01 15:23 | 50.93614 | -46.64467 | 40481 ft | 482 kts | 258° |
| 2026-05-01 15:24 | 50.92421 | -46.74847 | 40479 ft | 482 kts | 258° |
| 2026-05-01 15:24 | 50.91209 | -46.85297 | 40479 ft | 482 kts | 258° |
| 2026-05-01 15:25 | 50.89989 | -46.95737 | 40477 ft | 482 kts | 258° |
| 2026-05-01 15:25 | 50.88759 | -47.06175 | 40477 ft | 482 kts | 258° |
| 2026-05-01 15:26 | 50.87529 | -47.16533 | 40474 ft | 481 kts | 258° |
| 2026-05-01 15:26 | 50.86284 | -47.26930 | 40476 ft | 481 kts | 258° |
| 2026-05-01 15:27 | 50.85030 | -47.37318 | 40473 ft | 480 kts | 258° |
| 2026-05-01 15:28 | 50.83132 | -47.52890 | 40470 ft | 480 kts | 258° |
| 2026-05-01 15:28 | 50.81864 | -47.63189 | 40471 ft | 480 kts | 258° |
| 2026-05-01 15:29 | 50.79932 | -47.78735 | 40470 ft | 480 kts | 258° |
| 2026-05-01 15:30 | 50.77325 | -47.99443 | 40468 ft | 480 kts | 257° |
| 2026-05-01 15:31 | 50.73359 | -48.30348 | 40465 ft | 480 kts | 257° |
| 2026-05-01 15:32 | 50.70674 | -48.50891 | 40459 ft | 480 kts | 257° |
| 2026-05-01 15:34 | 50.66566 | -48.81754 | 40451 ft | 479 kts | 256° |